Aviation Digital Data Service (ADDS)

Output produced by TAFs form (2029 UTC 20 July 2017)
found at http://www.aviationweather.gov/adds/tafs/
 
METAR text: RJOO 202000Z 06007KT 9999 FEW025 SCT070 27/21 Q1010
Conditions at: RJOO (OSAKA INTL/ITAMI, JP) observed 2000 UTC 20 July 2017
Temperature: 27.0°C (81°F)
Dewpoint: 21.0°C (70°F) [RH = 70%]
Pressure (altimeter): 29.82 inches Hg (1010.0 mb)
Winds: from the ENE (60 degrees) at 8 MPH (7 knots; 3.6 m/s)
Visibility: 6 or more miles (10+ km)
Ceiling: at least 12,000 feet AGL
Clouds: few clouds at 2500 feet AGL
scattered clouds at 7000 feet AGL
Weather: no significant weather observed at this time

Forecast for: RJOO (OSAKA INTL/ITAMI, JP)
Text: TAF RJOO 201705Z 2018/2200 06007KT 9999 FEW025
Forecast period: 1800 UTC 20 July 2017 to 0000 UTC 22 July 2017
Forecast type: FROM: standard forecast or significant change
Winds: from the ENE (60 degrees) at 8 MPH (7 knots; 3.6 m/s)
Visibility: 6 or more miles (10+ km)
Clouds: few clouds at 2500 feet AGL
Weather: no significant weather forecast for this period